Time;durP1;ratioP1;P1;durP2;ratioP2;P2;SDS_P1;SDS_P2;PMS_P1;PMS_P2;Temp;Humidity;BMP_temperature;BMP_pressure;BME280_temperature;BME280_humidity;BME280_pressure;Samples;Min_cycle;Max_cycle;Signal;HPM_P1;HPM_P2
2024/04/19 00:01:23;;;;;;;4.10;3.80;;;8.20;41.90;;;;;;11150999;26;21773;-72
2024/04/19 00:06:28;;;;;;;3.87;3.57;;;8.20;41.60;;;;;;11147951;26;20251;-72
2024/04/19 00:11:35;;;;;;;4.13;3.83;;;8.20;42.30;;;;;;11146052;26;20260;-72
2024/04/19 00:16:40;;;;;;;3.87;3.57;;;8.20;41.90;;;;;;11155648;26;20759;-72
2024/04/19 00:21:45;;;;;;;4.30;4.00;;;8.20;41.60;;;;;;11146526;26;20384;-73
2024/04/19 00:26:53;;;;;;;4.67;4.27;;;8.10;41.60;;;;;;11148979;26;20274;-73
2024/04/19 00:31:58;;;;;;;4.70;4.30;;;8.10;42.10;;;;;;11161210;26;20263;-73
2024/04/19 00:37:03;;;;;;;4.53;4.13;;;8.10;42.00;;;;;;11150092;26;20310;-72
2024/04/19 00:42:11;;;;;;;4.60;4.30;;;8.00;42.00;;;;;;11158328;26;20306;-72
2024/04/19 00:47:17;;;;;;;4.17;3.87;;;8.00;42.40;;;;;;11159508;26;20301;-72
2024/04/19 00:52:22;;;;;;;4.87;4.47;;;8.10;42.20;;;;;;11141002;26;20272;-72
2024/04/19 00:57:29;;;;;;;5.23;4.83;;;8.10;42.10;;;;;;11152143;26;20258;-72
2024/04/19 01:02:37;;;;;;;5.37;4.87;;;8.10;42.40;;;;;;11154398;26;20247;-72
2024/04/19 01:07:42;;;;;;;5.20;4.80;;;8.20;42.20;;;;;;11148514;26;20309;-72
2024/04/19 01:12:51;;;;;;;5.20;4.80;;;8.20;42.00;;;;;;11151283;26;20259;-72
2024/04/19 01:17:55;;;;;;;6.00;5.50;;;8.20;42.30;;;;;;11141594;26;20321;-72
2024/04/19 01:23:01;;;;;;;6.03;4.93;;;8.30;42.00;;;;;;11147911;26;20301;-73
2024/04/19 01:28:12;;;;;;;5.97;5.47;;;8.30;41.90;;;;;;11143335;26;20596;-72
2024/04/19 01:33:17;;;;;;;5.50;5.10;;;8.30;42.30;;;;;;11138678;26;20302;-72
2024/04/19 01:38:22;;;;;;;5.73;5.17;;;8.20;42.00;;;;;;11148240;26;20367;-72
2024/04/19 01:43:30;;;;;;;5.93;5.43;;;8.30;42.00;;;;;;11145073;26;20263;-72
2024/04/19 01:48:35;;;;;;;5.60;5.20;;;8.30;42.20;;;;;;11138906;26;20305;-72
2024/04/19 01:53:41;;;;;;;6.30;5.70;;;8.30;41.90;;;;;;11137503;26;20261;-73
2024/04/19 01:58:48;;;;;;;5.97;5.47;;;8.30;41.90;;;;;;11143976;26;20262;-72
2024/04/19 02:03:53;;;;;;;6.23;5.73;;;8.30;42.10;;;;;;11144320;26;20264;-73
2024/04/19 02:08:58;;;;;;;6.87;6.27;;;8.20;41.70;;;;;;11147089;26;20263;-72
2024/04/19 02:14:06;;;;;;;5.77;5.37;;;8.30;41.80;;;;;;11144105;26;20266;-72
2024/04/19 02:19:11;;;;;;;6.13;5.73;;;8.30;42.10;;;;;;11155627;26;20294;-72
2024/04/19 02:24:16;;;;;;;6.27;5.77;;;8.20;41.80;;;;;;11149005;26;20297;-72
2024/04/19 02:34:56;;;;;;;7.03;6.37;;;8.20;42.30;;;;;;11057777;26;20264;-72
2024/04/19 02:40:01;;;;;;;7.70;7.10;;;8.20;42.00;;;;;;11149282;26;20268;-73
2024/04/19 02:45:09;;;;;;;7.27;6.60;;;8.20;41.90;;;;;;11131293;26;20259;-72
2024/04/19 02:50:14;;;;;;;7.33;6.73;;;8.20;42.30;;;;;;11150298;26;20271;-72
2024/04/19 02:55:19;;;;;;;7.23;6.63;;;8.20;42.00;;;;;;11152354;26;20259;-73
2024/04/19 03:00:27;;;;;;;6.90;6.30;;;8.20;41.90;;;;;;11147804;26;21078;-72
2024/04/19 03:05:33;;;;;;;7.37;6.77;;;8.20;42.30;;;;;;11144536;26;20259;-73
2024/04/19 03:10:40;;;;;;;7.63;7.00;;;8.20;41.90;;;;;;11147295;26;20785;-72
2024/04/19 03:15:47;;;;;;;7.90;7.30;;;8.20;42.20;;;;;;11144028;26;20273;-72
2024/04/19 03:21:00;;;;;;;7.83;7.23;;;8.20;42.30;;;;;;11139895;26;20322;-72
2024/04/19 03:26:06;;;;;;;7.63;6.93;;;8.10;42.60;;;;;;11143106;26;20306;-72
2024/04/19 03:31:14;;;;;;;7.43;6.83;;;8.10;42.20;;;;;;11148924;26;20263;-72
2024/04/19 03:36:19;;;;;;;7.90;7.20;;;8.10;42.40;;;;;;11151960;26;20354;-72
2024/04/19 03:41:24;;;;;;;8.07;7.40;;;8.10;42.10;;;;;;11154754;26;20271;-72
2024/04/19 03:46:32;;;;;;;8.00;7.40;;;8.10;42.00;;;;;;11149890;26;20268;-72
2024/04/19 03:51:37;;;;;;;8.20;7.50;;;8.00;42.30;;;;;;11147056;26;20329;-72
2024/04/19 03:56:42;;;;;;;7.87;7.27;;;8.00;42.00;;;;;;11150514;26;20289;-72
2024/04/19 04:01:50;;;;;;;8.70;7.90;;;7.90;42.00;;;;;;11147154;26;20398;-72
2024/04/19 04:06:55;;;;;;;8.30;7.60;;;7.90;43.00;;;;;;11149914;26;20298;-72
2024/04/19 04:12:00;;;;;;;7.43;6.83;;;7.90;42.20;;;;;;11162574;26;20251;-72
2024/04/19 04:17:08;;;;;;;7.83;7.20;;;7.80;42.20;;;;;;11155463;26;21519;-73
2024/04/19 04:22:13;;;;;;;8.10;7.40;;;7.80;42.60;;;;;;11148456;26;20314;-73
2024/04/19 04:27:17;;;;;;;8.03;7.33;;;7.80;42.40;;;;;;11145028;26;20361;-73
2024/04/19 04:32:25;;;;;;;8.97;8.20;;;7.80;42.50;;;;;;11157886;26;20294;-72
2024/04/19 04:37:34;;;;;;;8.33;7.63;;;7.80;42.90;;;;;;11170619;26;20322;-72
2024/04/19 04:42:39;;;;;;;8.27;7.67;;;7.80;42.70;;;;;;11148458;26;20254;-72
2024/04/19 04:47:47;;;;;;;9.37;8.57;;;7.80;42.70;;;;;;11159426;26;20312;-72
2024/04/19 04:52:53;;;;;;;9.47;8.67;;;7.90;43.00;;;;;;11158615;26;20260;-72
2024/04/19 04:57:58;;;;;;;8.63;7.93;;;7.90;42.80;;;;;;11148951;26;20257;-72
2024/04/19 05:03:07;;;;;;;9.27;8.47;;;7.90;42.70;;;;;;11152298;26;20722;-71
2024/04/19 05:08:12;;;;;;;8.97;8.23;;;7.90;43.30;;;;;;11144933;26;20297;-72
2024/04/19 05:13:19;;;;;;;9.13;8.33;;;7.90;43.00;;;;;;11161637;26;20740;-72
2024/04/19 05:18:27;;;;;;;9.73;8.93;;;7.90;43.00;;;;;;11168425;26;20275;-72
2024/04/19 05:23:32;;;;;;;9.87;8.97;;;8.00;43.40;;;;;;11154325;26;20660;-77
2024/04/19 05:28:37;;;;;;;9.57;8.77;;;8.00;43.00;;;;;;11166067;26;20258;-72
2024/04/19 05:33:44;;;;;;;10.40;9.50;;;8.10;43.00;;;;;;11157640;26;20300;-72
2024/04/19 05:38:54;;;;;;;9.27;8.53;;;8.10;43.20;;;;;;11157575;26;20300;-72
2024/04/19 05:43:59;;;;;;;9.90;9.03;;;8.20;43.00;;;;;;11162517;26;20263;-72
2024/04/19 05:49:07;;;;;;;9.70;8.80;;;8.10;42.90;;;;;;11149603;26;20738;-72
2024/04/19 05:54:12;;;;;;;9.33;8.53;;;8.10;43.30;;;;;;11156128;26;20796;-72
2024/04/19 05:59:17;;;;;;;8.73;7.93;;;8.20;43.10;;;;;;11147130;26;20637;-72
2024/04/19 06:04:24;;;;;;;9.57;8.67;;;8.20;43.00;;;;;;11150717;26;20258;-72
2024/04/19 06:09:29;;;;;;;9.53;8.73;;;8.30;43.50;;;;;;11149395;26;20293;-72
2024/04/19 06:14:34;;;;;;;9.07;8.37;;;8.30;43.20;;;;;;11147008;26;20628;-72
2024/04/19 06:19:42;;;;;;;8.57;7.87;;;8.30;43.00;;;;;;11149837;26;20255;-72
2024/04/19 06:24:47;;;;;;;8.70;7.90;;;8.40;43.30;;;;;;11154464;26;20340;-72
2024/04/19 06:29:52;;;;;;;9.37;8.57;;;8.50;43.10;;;;;;11135927;26;20759;-72
2024/04/19 06:35:00;;;;;;;9.27;8.47;;;8.60;43.10;;;;;;11154764;26;20632;-72
2024/04/19 06:40:06;;;;;;;9.83;8.83;;;8.60;43.20;;;;;;11134092;26;20801;-72
2024/04/19 06:45:12;;;;;;;8.73;7.97;;;8.70;43.00;;;;;;11151223;26;20343;-72
2024/04/19 06:50:19;;;;;;;8.30;7.60;;;8.70;42.90;;;;;;11160162;26;20322;-72
2024/04/19 06:55:24;;;;;;;8.90;8.00;;;8.80;43.20;;;;;;11150642;26;20304;-72
2024/04/19 07:00:29;;;;;;;8.03;7.33;;;8.90;42.90;;;;;;11136439;26;21341;-72
2024/04/19 07:05:53;;;;;;;8.27;7.57;;;9.10;42.90;;;;;;11147409;26;20704;-72
2024/04/19 07:10:59;;;;;;;8.10;7.40;;;9.10;42.90;;;;;;11154945;26;20305;-72
2024/04/19 07:16:04;;;;;;;7.80;7.10;;;9.20;42.80;;;;;;11149376;26;20267;-74
2024/04/19 07:21:11;;;;;;;7.90;7.13;;;9.30;42.70;;;;;;11148270;26;20293;-71
2024/04/19 07:26:16;;;;;;;7.70;6.90;;;9.40;42.80;;;;;;11150408;26;20300;-71
2024/04/19 07:31:21;;;;;;;7.47;6.83;;;9.40;42.50;;;;;;11152988;26;20262;-72
2024/04/19 07:36:29;;;;;;;7.77;7.07;;;9.50;42.60;;;;;;11149535;26;20297;-72
2024/04/19 07:41:35;;;;;;;7.77;7.07;;;9.60;42.40;;;;;;11156766;26;20386;-71
2024/04/19 07:46:41;;;;;;;7.70;7.00;;;9.60;42.30;;;;;;11133228;26;20274;-71
2024/04/19 07:51:48;;;;;;;7.77;7.00;;;9.70;42.50;;;;;;11125996;26;20259;-71
2024/04/19 07:56:53;;;;;;;7.27;6.57;;;9.70;42.00;;;;;;11130011;26;20779;-71
2024/04/19 08:01:59;;;;;;;6.90;6.30;;;9.80;42.40;;;;;;11155819;26;20772;-71
2024/04/19 08:07:06;;;;;;;7.50;6.70;;;9.90;42.50;;;;;;11153997;26;20751;-71
2024/04/19 08:12:16;;;;;;;9.73;6.97;;;10.00;41.00;;;;;;11157022;26;21003;-71
2024/04/19 08:17:21;;;;;;;7.40;6.70;;;10.10;41.10;;;;;;11156162;26;20364;-71
2024/04/19 08:22:28;;;;;;;7.37;6.73;;;10.10;40.90;;;;;;11155689;26;20254;-71
2024/04/19 08:27:33;;;;;;;7.10;6.50;;;10.20;40.70;;;;;;11156484;26;20626;-71
2024/04/19 08:32:38;;;;;;;8.23;7.13;;;10.40;41.10;;;;;;11162728;26;20662;-71
2024/04/19 08:37:46;;;;;;;6.83;6.23;;;10.50;40.40;;;;;;11146688;26;20301;-71
2024/04/19 08:42:52;;;;;;;6.53;6.00;;;10.60;39.10;;;;;;11156730;26;20309;-71
2024/04/19 08:47:58;;;;;;;6.37;5.77;;;10.60;39.90;;;;;;11159572;26;20309;-71
2024/04/19 08:53:09;;;;;;;6.17;5.67;;;10.70;39.80;;;;;;11150282;26;20259;-71
2024/04/19 08:58:20;;;;;;;6.37;5.87;;;10.60;39.20;;;;;;11154129;26;20765;-71
2024/04/19 09:03:27;;;;;;;6.20;5.70;;;10.70;39.50;;;;;;11156303;26;20305;-71
2024/04/19 09:08:35;;;;;;;6.10;5.30;;;10.70;39.30;;;;;;11154983;26;20261;-71
2024/04/19 09:13:40;;;;;;;6.10;5.60;;;10.70;39.60;;;;;;11160741;26;20313;-71
2024/04/19 09:18:50;;;;;;;5.93;5.23;;;10.70;40.30;;;;;;11155199;26;20315;-71
2024/04/19 09:23:58;;;;;;;6.77;6.07;;;10.80;39.00;;;;;;11148730;26;20309;-71
2024/04/19 09:29:04;;;;;;;6.00;5.43;;;10.90;39.50;;;;;;11149661;26;20309;-70
2024/04/19 09:34:10;;;;;;;5.77;5.27;;;11.00;39.20;;;;;;11145754;26;20272;-70
2024/04/19 09:39:19;;;;;;;5.80;5.20;;;11.10;39.40;;;;;;11144434;26;20262;-71
2024/04/19 09:44:26;;;;;;;5.37;4.87;;;11.20;38.40;;;;;;11135280;26;20343;-71
2024/04/19 09:49:33;;;;;;;5.27;4.70;;;11.20;39.00;;;;;;11145755;26;20966;-71
2024/04/19 09:54:42;;;;;;;5.13;4.73;;;11.20;38.40;;;;;;11139815;26;20272;-71
2024/04/19 09:59:48;;;;;;;4.40;4.00;;;11.20;38.30;;;;;;11146507;26;20894;-71
2024/04/19 10:04:53;;;;;;;5.33;4.83;;;11.20;38.50;;;;;;11138319;26;20259;-71
2024/04/19 10:10:02;;;;;;;5.10;4.67;;;11.30;38.00;;;;;;11156444;26;20263;-71
2024/04/19 10:15:11;;;;;;;4.90;4.40;;;11.30;37.50;;;;;;11157215;26;20262;-71
2024/04/19 10:20:16;;;;;;;4.70;4.30;;;11.40;37.10;;;;;;11151827;26;20294;-71
2024/04/19 10:25:26;;;;;;;4.40;4.10;;;11.50;37.40;;;;;;11137876;26;20260;-71
2024/04/19 10:30:32;;;;;;;4.43;3.83;;;11.40;36.40;;;;;;11149664;26;20872;-71
2024/04/19 10:35:44;;;;;;;4.77;4.17;;;11.30;37.00;;;;;;11155079;26;20254;-71
2024/04/19 10:40:52;;;;;;;3.70;3.40;;;11.20;36.70;;;;;;11157941;26;20787;-71
2024/04/19 10:45:57;;;;;;;3.87;3.57;;;11.00;36.90;;;;;;11160435;26;20294;-72
2024/04/19 10:51:04;;;;;;;3.90;3.57;;;10.90;37.60;;;;;;11144177;26;20620;-71
2024/04/19 10:56:12;;;;;;;3.50;3.20;;;10.90;37.60;;;;;;11129965;26;20251;-71
2024/04/19 11:01:17;;;;;;;3.43;3.13;;;10.80;37.20;;;;;;11160070;26;20255;-71
2024/04/19 11:06:22;;;;;;;3.90;3.60;;;10.80;37.90;;;;;;11161243;26;20368;-71
2024/04/19 11:11:37;;;;;;;3.23;2.93;;;10.80;37.80;;;;;;11161107;26;20307;-71
2024/04/19 11:16:42;;;;;;;3.23;3.00;;;10.70;37.90;;;;;;11155310;26;20264;-71
2024/04/19 11:21:48;;;;;;;3.97;3.67;;;10.70;38.20;;;;;;11158795;26;20258;-71
2024/04/19 11:26:56;;;;;;;3.87;3.57;;;10.70;38.20;;;;;;11139990;26;20266;-71
2024/04/19 11:32:06;;;;;;;3.43;3.20;;;10.60;38.60;;;;;;11153202;26;20296;-71
2024/04/19 11:37:16;;;;;;;3.87;3.50;;;10.60;38.80;;;;;;11107842;26;20368;-71
2024/04/19 11:42:24;;;;;;;4.27;3.97;;;10.50;39.00;;;;;;11139977;26;20306;-72
2024/04/19 11:47:29;;;;;;;4.00;3.70;;;10.40;39.30;;;;;;11151670;26;20939;-72
2024/04/19 11:52:35;;;;;;;4.27;3.97;;;10.30;39.30;;;;;;11136079;26;20309;-72
2024/04/19 11:57:44;;;;;;;4.63;4.23;;;10.20;39.70;;;;;;11152933;26;20270;-72
2024/04/19 12:02:50;;;;;;;5.23;4.20;;;10.10;40.00;;;;;;11154805;26;20312;-72
2024/04/19 12:07:55;;;;;;;4.80;4.40;;;10.00;39.90;;;;;;11157475;26;20262;-72
2024/04/19 12:13:03;;;;;;;4.17;3.87;;;9.90;40.80;;;;;;11164317;26;20290;-72
2024/04/19 12:18:11;;;;;;;4.60;4.20;;;9.90;41.30;;;;;;11156271;26;20262;-72
2024/04/19 12:23:16;;;;;;;4.73;4.33;;;9.90;41.10;;;;;;11166359;26;20599;-72
2024/04/19 12:28:27;;;;;;;5.00;4.60;;;9.90;41.20;;;;;;11166631;26;20304;-72
2024/04/19 12:33:33;;;;;;;4.83;4.43;;;9.90;41.70;;;;;;11157057;26;20255;-72
2024/04/19 12:38:38;;;;;;;4.97;4.57;;;9.90;41.60;;;;;;11167111;26;20305;-72
2024/04/19 12:43:47;;;;;;;12.03;10.77;;;9.90;41.60;;;;;;11166380;26;20269;-72
2024/04/19 12:48:58;;;;;;;5.03;4.63;;;9.90;41.90;;;;;;11168309;26;20851;-72
2024/04/19 12:54:03;;;;;;;3.90;3.60;;;9.80;41.50;;;;;;11176929;26;20258;-73
2024/04/19 12:59:11;;;;;;;3.33;3.07;;;9.70;41.50;;;;;;11168421;26;20263;-71
2024/04/19 13:04:16;;;;;;;3.60;3.30;;;9.70;42.00;;;;;;11153268;26;20294;-72
2024/04/19 13:09:21;;;;;;;3.37;3.17;;;9.60;42.00;;;;;;11141685;26;20295;-72
2024/04/19 13:14:29;;;;;;;3.70;3.40;;;9.60;42.40;;;;;;11155783;26;20258;-72
2024/04/19 13:19:34;;;;;;;3.90;3.60;;;9.60;42.60;;;;;;11160691;26;20305;-72
2024/04/19 13:24:39;;;;;;;3.53;3.23;;;9.60;42.60;;;;;;11151843;26;20356;-72
2024/04/19 13:29:46;;;;;;;3.97;3.67;;;9.60;42.40;;;;;;11154696;26;20363;-72
2024/04/19 13:34:51;;;;;;;3.30;3.00;;;9.40;42.90;;;;;;11154697;26;20701;-72
2024/04/19 13:39:56;;;;;;;3.10;2.90;;;9.60;42.50;;;;;;11150210;26;20263;-72
2024/04/19 13:45:04;;;;;;;2.57;2.40;;;9.60;42.60;;;;;;11159412;26;20298;-72
2024/04/19 13:50:10;;;;;;;2.77;2.57;;;9.60;42.70;;;;;;11167041;26;21016;-72
2024/04/19 13:55:15;;;;;;;3.20;2.90;;;9.60;42.20;;;;;;11157088;26;20316;-72
2024/04/19 14:00:22;;;;;;;3.27;3.03;;;9.50;42.40;;;;;;11162155;26;20259;-72
2024/04/19 14:05:28;;;;;;;2.90;2.70;;;9.50;42.60;;;;;;11158316;26;20259;-72
2024/04/19 14:10:33;;;;;;;2.90;2.70;;;9.40;42.40;;;;;;11163375;26;20263;-72
2024/04/19 14:15:40;;;;;;;3.17;2.97;;;9.30;42.50;;;;;;11162113;26;20275;-72
2024/04/19 14:20:49;;;;;;;4.53;4.13;;;9.30;43.10;;;;;;11156350;26;20763;-72
2024/04/19 14:25:55;;;;;;;3.50;3.20;;;9.30;42.90;;;;;;11159857;26;20257;-72
2024/04/19 14:31:03;;;;;;;3.20;2.90;;;9.30;42.70;;;;;;11164650;26;20262;-72
2024/04/19 14:36:08;;;;;;;2.77;2.57;;;9.30;43.00;;;;;;11165518;26;20285;-72
2024/04/19 14:41:13;;;;;;;2.67;2.47;;;9.30;42.80;;;;;;11162682;26;20587;-72
2024/04/19 14:46:22;;;;;;;2.83;2.50;;;9.20;42.80;;;;;;11155726;26;20343;-72
2024/04/19 14:51:27;;;;;;;2.80;2.60;;;9.20;43.00;;;;;;11155200;26;20290;-73
2024/04/19 14:56:32;;;;;;;2.73;2.53;;;9.20;42.90;;;;;;11157188;26;20306;-72
2024/04/19 15:01:39;;;;;;;2.50;2.40;;;9.20;42.90;;;;;;11151463;26;20260;-72
2024/04/19 15:06:45;;;;;;;3.10;2.90;;;9.20;43.40;;;;;;11154817;26;20859;-73
2024/04/19 15:11:49;;;;;;;2.80;2.60;;;9.20;43.00;;;;;;11147641;26;20344;-73
2024/04/19 15:16:59;;;;;;;2.67;2.47;;;9.20;42.90;;;;;;11164369;26;20258;-72
2024/04/19 15:22:04;;;;;;;5.50;5.00;;;9.20;43.50;;;;;;11158390;26;20376;-72
2024/04/19 15:27:09;;;;;;;2.77;2.57;;;9.10;43.00;;;;;;11149921;26;20271;-72
2024/04/19 15:32:16;;;;;;;2.73;2.50;;;9.10;43.10;;;;;;11169140;26;20392;-73
2024/04/19 15:37:22;;;;;;;2.60;2.40;;;9.10;43.90;;;;;;11162481;26;20263;-72
2024/04/19 15:42:27;;;;;;;2.17;2.07;;;9.10;43.30;;;;;;11156360;26;20262;-73
2024/04/19 15:47:35;;;;;;;2.30;2.20;;;9.10;43.30;;;;;;11156811;26;20343;-73
2024/04/19 15:52:41;;;;;;;2.60;2.40;;;9.00;43.60;;;;;;11158960;26;20385;-72
2024/04/19 15:57:45;;;;;;;2.47;2.27;;;9.00;43.40;;;;;;11167517;26;20265;-72
2024/04/19 16:02:56;;;;;;;2.40;2.20;;;9.00;43.50;;;;;;11157677;26;20279;-72
2024/04/19 16:08:01;;;;;;;2.77;2.57;;;9.00;43.90;;;;;;11146619;26;20259;-72
2024/04/19 16:13:07;;;;;;;2.30;2.10;;;9.00;43.60;;;;;;11133869;26;20282;-72
2024/04/19 16:18:16;;;;;;;2.40;2.20;;;8.90;43.40;;;;;;11143837;26;20293;-73
2024/04/19 16:23:21;;;;;;;2.30;2.20;;;8.90;43.90;;;;;;11155697;26;20255;-72
2024/04/19 16:28:30;;;;;;;2.03;1.93;;;8.80;43.30;;;;;;11157390;26;20328;-72
2024/04/19 16:33:38;;;;;;;3.10;2.20;;;8.80;43.40;;;;;;11156333;26;20313;-72
2024/04/19 16:38:43;;;;;;;2.00;1.90;;;8.80;43.90;;;;;;11149259;26;20265;-72
2024/04/19 16:43:48;;;;;;;2.30;2.20;;;8.70;43.40;;;;;;11151228;26;20308;-72
2024/04/19 16:48:56;;;;;;;2.20;2.10;;;8.70;43.60;;;;;;11147243;26;20375;-72
2024/04/19 16:54:01;;;;;;;1.90;1.80;;;8.60;44.10;;;;;;11143136;26;20389;-73
2024/04/19 16:59:05;;;;;;;1.87;1.77;;;8.60;43.60;;;;;;11146839;26;20393;-73
2024/04/19 17:04:16;;;;;;;2.70;1.90;;;8.60;43.70;;;;;;11145023;26;20644;-73
2024/04/19 17:09:21;;;;;;;1.70;1.60;;;8.50;44.30;;;;;;11150339;26;20441;-72
2024/04/19 17:14:26;;;;;;;2.30;2.20;;;8.50;43.70;;;;;;11124394;26;20263;-72
2024/04/19 17:19:34;;;;;;;1.90;1.80;;;8.40;43.70;;;;;;11144144;26;20759;-72
2024/04/19 17:24:39;;;;;;;1.57;1.47;;;8.40;44.40;;;;;;11145245;26;20297;-73
2024/04/19 17:29:44;;;;;;;1.70;1.60;;;8.40;44.00;;;;;;11149181;26;20352;-72
2024/04/19 17:34:52;;;;;;;1.50;1.40;;;8.40;43.70;;;;;;11159901;26;20254;-72
2024/04/19 17:39:57;;;;;;;1.50;1.40;;;8.40;44.20;;;;;;11151975;26;20262;-72
2024/04/19 17:45:02;;;;;;;1.30;1.30;;;8.40;43.80;;;;;;11160893;26;20309;-72
2024/04/19 17:50:10;;;;;;;1.50;1.40;;;8.50;43.90;;;;;;11153787;26;20297;-72
2024/04/19 17:55:17;;;;;;;1.60;1.50;;;8.40;44.40;;;;;;11156687;26;20298;-72
2024/04/19 18:00:22;;;;;;;1.83;1.50;;;8.50;44.20;;;;;;11149506;26;20259;-72
2024/04/19 18:05:29;;;;;;;1.30;1.30;;;8.50;44.10;;;;;;11149870;26;21027;-72
2024/04/19 18:10:35;;;;;;;1.60;1.50;;;8.50;44.60;;;;;;11147912;26;20268;-71
2024/04/19 18:15:40;;;;;;;1.20;1.10;;;8.50;44.20;;;;;;11144143;26;20306;-72
2024/04/19 18:20:49;;;;;;;1.30;1.23;;;8.50;44.10;;;;;;11144957;26;21085;-72
2024/04/19 18:25:55;;;;;;;2.30;2.20;;;8.50;44.50;;;;;;11120453;26;20313;-72
2024/04/19 18:31:02;;;;;;;1.50;1.40;;;8.50;44.20;;;;;;11137856;26;20365;-72
2024/04/19 18:36:11;;;;;;;1.20;1.20;;;8.50;44.10;;;;;;11147223;26;20793;-72
2024/04/19 18:41:16;;;;;;;1.37;1.10;;;8.50;44.30;;;;;;11160208;26;20314;-72
2024/04/19 18:46:21;;;;;;;1.77;1.60;;;8.40;44.10;;;;;;11167828;26;21087;-72
2024/04/19 18:51:29;;;;;;;1.40;1.30;;;8.40;44.10;;;;;;11133442;26;21065;-72
2024/04/19 18:56:35;;;;;;;1.40;1.30;;;8.30;44.60;;;;;;11132634;26;21200;-72
2024/04/19 19:01:40;;;;;;;1.17;1.17;;;8.30;44.10;;;;;;11150368;26;20255;-72
2024/04/19 19:06:49;;;;;;;1.43;1.33;;;8.30;44.30;;;;;;11147939;26;20609;-72
2024/04/19 19:11:54;;;;;;;1.37;1.37;;;8.30;44.80;;;;;;11128942;26;21108;-72
2024/04/19 19:16:59;;;;;;;2.20;1.50;;;8.30;44.30;;;;;;11148293;26;20605;-72
2024/04/19 19:22:07;;;;;;;1.63;1.53;;;8.30;44.40;;;;;;11146270;26;20290;-72
2024/04/19 19:27:12;;;;;;;1.60;1.50;;;8.40;44.90;;;;;;11157959;26;20360;-72
2024/04/19 19:32:18;;;;;;;1.70;1.60;;;8.40;44.50;;;;;;11145138;26;20259;-72
2024/04/19 19:37:27;;;;;;;1.80;1.70;;;8.40;44.60;;;;;;11126918;26;20295;-72
2024/04/19 19:42:34;;;;;;;2.73;1.43;;;8.40;45.10;;;;;;11150650;26;20302;-72
2024/04/19 19:47:39;;;;;;;1.60;1.50;;;8.50;44.80;;;;;;11143681;26;20301;-72
2024/04/19 19:52:47;;;;;;;1.83;1.73;;;8.60;44.80;;;;;;11102679;26;20297;-72
2024/04/19 19:57:54;;;;;;;2.10;2.00;;;8.60;45.20;;;;;;11144802;26;20258;-72
2024/04/19 20:08:25;;;;;;;1.20;1.20;;;8.70;45.00;;;;;;11141142;26;20262;-72
2024/04/19 20:13:30;;;;;;;1.30;1.30;;;8.70;45.20;;;;;;11152013;26;21125;-72
2024/04/19 20:18:37;;;;;;;2.20;1.20;;;8.80;44.90;;;;;;11136554;26;20262;-72
2024/04/19 20:23:45;;;;;;;1.30;1.20;;;8.80;44.80;;;;;;11135316;26;20272;-73
2024/04/19 20:28:54;;;;;;;1.40;1.30;;;8.80;45.10;;;;;;11161732;26;20413;-72
2024/04/19 20:33:59;;;;;;;1.23;1.23;;;8.90;44.80;;;;;;11158349;26;20289;-72
2024/04/19 20:39:07;;;;;;;1.53;1.20;;;8.90;44.70;;;;;;11152246;26;20306;-72
2024/04/19 20:44:13;;;;;;;1.10;1.10;;;8.90;45.10;;;;;;11156630;26;20290;-72
2024/04/19 20:49:18;;;;;;;1.30;1.20;;;9.00;44.60;;;;;;11139412;26;20733;-72
2024/04/19 20:54:26;;;;;;;1.40;1.30;;;8.90;44.50;;;;;;11144587;26;20330;-72
2024/04/19 20:59:31;;;;;;;1.00;1.00;;;8.90;44.90;;;;;;11143177;26;20289;-72
2024/04/19 21:04:37;;;;;;;0.93;0.93;;;8.90;44.50;;;;;;11145939;26;20252;-72
2024/04/19 21:09:44;;;;;;;1.10;1.10;;;8.90;44.60;;;;;;11135077;26;20255;-72
2024/04/19 21:14:50;;;;;;;1.10;1.10;;;9.00;45.00;;;;;;11140470;26;20795;-72
2024/04/19 21:19:55;;;;;;;1.00;1.00;;;9.00;44.60;;;;;;11141006;26;20337;-72
2024/04/19 21:25:04;;;;;;;1.40;0.90;;;9.00;44.50;;;;;;11145179;26;20263;-72
2024/04/19 21:30:11;;;;;;;1.40;1.03;;;9.10;45.00;;;;;;11140791;26;20263;-72
2024/04/19 21:35:18;;;;;;;2.17;0.90;;;9.00;44.60;;;;;;11151033;26;20259;-73
2024/04/19 21:40:27;;;;;;;1.30;0.93;;;9.10;44.40;;;;;;11137802;26;20263;-72
2024/04/19 21:45:32;;;;;;;0.83;0.83;;;9.10;44.50;;;;;;11139448;26;20310;-72
2024/04/19 21:50:37;;;;;;;1.10;0.83;;;9.10;44.20;;;;;;11135456;26;20879;-72
2024/04/19 21:55:50;;;;;;;0.80;0.80;;;9.20;44.20;;;;;;11138412;26;20739;-72
2024/04/19 22:00:54;;;;;;;1.33;1.00;;;9.20;44.40;;;;;;11139348;26;20302;-72
2024/04/19 22:06:02;;;;;;;0.90;0.90;;;9.20;44.00;;;;;;11119454;26;20630;-72
2024/04/19 22:11:10;;;;;;;1.00;1.00;;;9.10;44.00;;;;;;11133023;26;20281;-72
2024/04/19 22:16:15;;;;;;;1.10;0.93;;;9.10;44.10;;;;;;11122019;26;20302;-72
2024/04/19 22:21:20;;;;;;;0.83;0.83;;;9.10;43.90;;;;;;11136226;26;20263;-72
2024/04/19 22:26:28;;;;;;;0.80;0.77;;;9.10;43.80;;;;;;11130695;26;20259;-72
2024/04/19 22:31:39;;;;;;;1.17;0.80;;;9.10;44.00;;;;;;11129370;26;20831;-72
2024/04/19 22:36:45;;;;;;;1.70;1.00;;;9.00;43.90;;;;;;11141894;26;20359;-72
2024/04/19 22:41:54;;;;;;;0.87;0.70;;;9.00;43.90;;;;;;11149082;26;20752;-72
2024/04/19 22:46:59;;;;;;;0.90;0.90;;;9.00;44.10;;;;;;11138483;26;20262;-72
2024/04/19 22:52:04;;;;;;;0.87;0.87;;;9.00;43.90;;;;;;11152347;26;20267;-72
2024/04/19 22:57:11;;;;;;;0.90;0.90;;;8.90;43.90;;;;;;11144928;26;20260;-72
2024/04/19 23:02:16;;;;;;;0.83;0.83;;;8.90;43.90;;;;;;11147283;26;20259;-72
2024/04/19 23:07:21;;;;;;;0.70;0.70;;;8.90;43.70;;;;;;11156304;26;20263;-72
2024/04/19 23:12:29;;;;;;;1.33;1.10;;;8.90;43.80;;;;;;11146682;26;20263;-72
2024/04/19 23:17:34;;;;;;;1.30;1.20;;;8.90;43.90;;;;;;11145147;26;20254;-72
2024/04/19 23:22:39;;;;;;;1.30;1.20;;;8.80;43.60;;;;;;11141565;26;20769;-72
2024/04/19 23:27:47;;;;;;;1.87;1.30;;;8.80;43.70;;;;;;11139181;26;20259;-72
2024/04/19 23:32:53;;;;;;;2.20;1.30;;;8.80;44.10;;;;;;11140626;26;20270;-73
2024/04/19 23:37:58;;;;;;;1.23;1.13;;;8.80;43.80;;;;;;11138072;26;20879;-72
2024/04/19 23:43:06;;;;;;;1.47;1.37;;;8.80;43.80;;;;;;11148959;26;20302;-72
2024/04/19 23:48:12;;;;;;;2.67;1.40;;;8.80;44.00;;;;;;11147122;26;20254;-72
2024/04/19 23:53:18;;;;;;;1.87;1.30;;;8.80;43.90;;;;;;11142683;26;20306;-72
2024/04/19 23:58:26;;;;;;;1.10;1.10;;;8.70;43.90;;;;;;11154191;26;20633;-72
